createdAt,value
2023-01-13T00:00:16.108Z,84.75
2023-01-13T00:02:43.628Z,84.78
2023-01-13T00:05:11.215Z,84.88
2023-01-13T00:07:40.348Z,84.32
2023-01-13T00:10:11.065Z,84.12
2023-01-13T00:12:42.035Z,84.38
2023-01-13T00:15:10.091Z,83.92
2023-01-13T00:17:38.911Z,84.18
2023-01-13T00:20:07.017Z,84.09
2023-01-13T00:22:35.230Z,83.74
2023-01-13T00:25:04.563Z,83.49
2023-01-13T00:27:34.969Z,83.48
2023-01-13T00:30:02.497Z,83.47
2023-01-13T00:32:29.831Z,84.08
2023-01-13T00:34:57.265Z,84.37
2023-01-13T00:37:24.760Z,83.96
2023-01-13T00:39:52.786Z,84.13
2023-01-13T00:42:38.683Z,84.31
2023-01-13T00:45:06.591Z,84.57
2023-01-13T00:47:33.909Z,84.85
2023-01-13T00:50:01.316Z,84.69
2023-01-13T00:52:28.622Z,84.55
2023-01-13T00:54:55.957Z,84.96
2023-01-13T00:57:23.269Z,85.31
2023-01-13T00:59:50.646Z,85.50
2023-01-13T01:02:18.058Z,85.74
2023-01-13T01:04:45.505Z,85.09
2023-01-13T01:07:13.061Z,84.81
2023-01-13T01:09:40.466Z,85.02
2023-01-13T01:12:07.851Z,84.58
2023-01-13T01:14:35.196Z,84.35
2023-01-13T01:17:02.557Z,84.06
2023-01-13T01:19:29.930Z,84.05
2023-01-13T01:21:57.240Z,84.32
2023-01-13T01:24:24.637Z,84.71
2023-01-13T01:26:51.930Z,84.19
2023-01-13T01:29:19.378Z,84.18
2023-01-13T01:31:46.885Z,84.19
2023-01-13T01:34:14.371Z,84.65
2023-01-13T01:36:41.676Z,84.99
2023-01-13T01:39:09.786Z,84.92
2023-01-13T01:41:37.329Z,84.50
2023-01-13T01:44:29.265Z,85.19
2023-01-13T01:46:56.717Z,85.13
2023-01-13T01:49:31.116Z,84.71
2023-01-13T01:52:02.334Z,83.79
2023-01-13T01:54:38.637Z,84.14
2023-01-13T01:57:06.690Z,84.22
2023-01-13T01:59:34.016Z,84.44
2023-01-13T02:02:01.540Z,84.91
2023-01-13T02:04:31.074Z,84.19
2023-01-13T02:06:58.656Z,84.18
2023-01-13T02:09:26.490Z,84.03
2023-01-13T02:12:12.496Z,83.90
2023-01-13T02:14:39.946Z,84.06
2023-01-13T02:17:10.250Z,83.74
2023-01-13T02:20:05.394Z,83.92
2023-01-13T02:22:59.957Z,83.81
2023-01-13T02:25:48.809Z,84.71
2023-01-13T02:29:02.669Z,85.08
2023-01-13T02:31:45.131Z,84.78
2023-01-13T02:34:17.837Z,84.06
2023-01-13T02:36:54.156Z,84.14
2023-01-13T02:39:31.245Z,84.45
2023-01-13T02:42:27.925Z,84.49
2023-01-13T02:45:07.179Z,84.38
2023-01-13T02:47:36.309Z,84.74
2023-01-13T02:50:05.631Z,84.68
2023-01-13T02:52:45.055Z,84.41
2023-01-13T02:55:23.711Z,84.84
2023-01-13T02:57:51.086Z,84.97
2023-01-13T03:00:18.874Z,84.78
2023-01-13T03:02:48.335Z,84.93
2023-01-13T03:05:16.050Z,84.95
2023-01-13T03:07:53.440Z,85.25
2023-01-13T03:10:54.164Z,85.67
2023-01-13T03:13:21.497Z,86.07
2023-01-13T03:15:59.094Z,86.05
2023-01-13T03:18:51.135Z,86.81
2023-01-13T03:21:26.111Z,87.15
2023-01-13T03:24:03.734Z,87.30
2023-01-13T03:26:38.911Z,86.78
2023-01-13T03:29:19.396Z,86.39
2023-01-13T03:32:03.893Z,86.40
2023-01-13T03:34:37.369Z,86.41
2023-01-13T03:37:06.537Z,86.62
2023-01-13T03:39:35.589Z,86.74
2023-01-13T03:42:06.780Z,86.35
2023-01-13T03:44:46.793Z,86.83
2023-01-13T03:47:26.618Z,86.55
2023-01-13T03:50:03.993Z,85.89
2023-01-13T03:52:33.741Z,86.18
2023-01-13T03:55:10.878Z,86.00
2023-01-13T03:58:00.286Z,86.85
2023-01-13T04:00:37.715Z,86.69
2023-01-13T04:03:07.871Z,86.97
2023-01-13T04:05:36.275Z,87.21
2023-01-13T04:08:23.498Z,86.92
2023-01-13T04:11:01.171Z,86.72
2023-01-13T04:13:30.295Z,86.90
2023-01-13T04:15:57.707Z,86.99
2023-01-13T04:18:27.019Z,86.96
2023-01-13T04:20:56.600Z,86.68
2023-01-13T04:23:24.310Z,85.96
2023-01-13T04:25:51.725Z,85.83
2023-01-13T04:28:19.275Z,86.07
2023-01-13T04:30:46.860Z,86.19
2023-01-13T04:33:14.820Z,85.83
2023-01-13T04:35:42.271Z,85.55
2023-01-13T04:38:11.851Z,85.55
2023-01-13T04:40:40.175Z,86.21
2023-01-13T04:43:07.538Z,86.44
2023-01-13T04:45:34.909Z,86.62
2023-01-13T04:48:02.280Z,85.91
2023-01-13T04:50:29.713Z,85.88
2023-01-13T04:52:57.096Z,85.88
2023-01-13T04:55:24.842Z,85.87
2023-01-13T04:57:52.260Z,85.62
2023-01-13T05:00:21.544Z,85.64
2023-01-13T05:02:52.042Z,85.73
2023-01-13T05:05:19.417Z,85.75
2023-01-13T05:07:46.747Z,86.00
2023-01-13T05:10:14.219Z,86.01
2023-01-13T05:13:00.049Z,85.84
2023-01-13T05:15:46.243Z,86.07
2023-01-13T05:18:13.580Z,86.54
2023-01-13T05:20:43.969Z,86.18
2023-01-13T05:23:29.742Z,86.16
2023-01-13T05:25:57.116Z,86.66
2023-01-13T05:28:24.381Z,86.79
2023-01-13T05:30:52.636Z,86.84
2023-01-13T05:33:22.741Z,86.79
2023-01-13T05:35:50.185Z,86.83
2023-01-13T05:38:18.205Z,87.00
2023-01-13T05:41:04.397Z,86.99
2023-01-13T05:43:33.221Z,86.22
2023-01-13T05:46:01.652Z,85.92
2023-01-13T05:48:31.803Z,85.72
2023-01-13T05:50:59.563Z,85.40
2023-01-13T05:53:29.625Z,85.83
2023-01-13T05:55:57.060Z,85.82
2023-01-13T05:58:25.810Z,86.08
2023-01-13T06:00:53.696Z,86.50
2023-01-13T06:03:21.159Z,86.00
2023-01-13T06:05:48.652Z,86.74
2023-01-13T06:08:16.064Z,86.66
2023-01-13T06:10:43.506Z,86.74
2023-01-13T06:13:11.081Z,86.96
2023-01-13T06:15:38.589Z,86.94
2023-01-13T06:18:06.096Z,86.71
2023-01-13T06:20:33.558Z,86.49
2023-01-13T06:23:01.058Z,86.24
2023-01-13T06:25:54.860Z,86.42
2023-01-13T06:28:22.573Z,86.52
2023-01-13T06:30:51.579Z,86.11
2023-01-13T06:33:21.384Z,85.90
2023-01-13T06:35:54.637Z,85.99
2023-01-13T06:38:22.085Z,85.71
2023-01-13T06:40:49.472Z,85.55
2023-01-13T06:43:17.576Z,85.80
2023-01-13T06:45:55.648Z,85.55
2023-01-13T06:48:28.366Z,85.23
2023-01-13T06:50:57.401Z,84.95
2023-01-13T06:53:25.196Z,85.11
2023-01-13T06:55:53.470Z,85.48
2023-01-13T06:58:21.889Z,85.49
2023-01-13T07:00:52.689Z,85.14
2023-01-13T07:03:20.468Z,85.35
2023-01-13T07:05:52.947Z,85.10
2023-01-13T07:08:32.379Z,84.59
2023-01-13T07:11:04.073Z,84.48
2023-01-13T07:13:50.372Z,84.76
2023-01-13T07:16:19.342Z,84.50
2023-01-13T07:18:47.203Z,84.60
2023-01-13T07:21:18.999Z,84.30
2023-01-13T07:23:47.314Z,84.50
2023-01-13T07:26:15.136Z,84.60
2023-01-13T07:28:43.418Z,84.36
2023-01-13T07:31:16.320Z,84.57
2023-01-13T07:33:44.092Z,84.22
2023-01-13T07:36:12.043Z,84.04
2023-01-13T07:38:40.088Z,83.72
2023-01-13T07:41:26.777Z,83.87
2023-01-13T07:43:54.590Z,83.61
2023-01-13T07:46:22.454Z,83.88
2023-01-13T07:48:50.377Z,84.92
2023-01-13T07:51:26.890Z,85.06
2023-01-13T07:53:57.268Z,85.33
2023-01-13T07:56:24.759Z,85.61
2023-01-13T07:58:55.567Z,85.56
2023-01-13T08:01:23.908Z,85.56
2023-01-13T08:03:52.813Z,85.50
2023-01-13T08:06:23.997Z,84.71
2023-01-13T08:08:51.665Z,83.47
2023-01-13T08:11:23.768Z,83.01
2023-01-13T08:13:58.347Z,83.22
2023-01-13T08:16:31.312Z,83.10
2023-01-13T08:19:00.985Z,83.14
2023-01-13T08:21:28.613Z,83.12
2023-01-13T08:24:30.078Z,83.34
2023-01-13T08:27:09.235Z,83.77
2023-01-13T08:29:39.731Z,83.71
2023-01-13T08:35:18.114Z,83.35
2023-01-13T08:37:46.162Z,83.70
2023-01-13T08:40:18.729Z,83.88
2023-01-13T08:42:48.606Z,84.28
2023-01-13T08:45:30.497Z,84.05
2023-01-13T08:48:00.599Z,83.74
2023-01-13T08:50:30.624Z,84.08
2023-01-13T08:52:59.161Z,83.92
2023-01-13T08:55:26.918Z,83.61
2023-01-13T08:58:03.405Z,83.11
2023-01-13T09:00:38.074Z,83.03
2023-01-13T09:03:05.496Z,82.85
2023-01-13T09:05:33.357Z,82.84
2023-01-13T09:08:00.797Z,82.95
2023-01-13T09:10:28.483Z,82.93
2023-01-13T09:13:14.277Z,82.38
2023-01-13T09:15:43.095Z,82.72
2023-01-13T09:18:14.107Z,82.92
2023-01-13T09:20:42.253Z,83.17
2023-01-13T09:23:12.864Z,83.08
2023-01-13T09:25:40.937Z,82.42
2023-01-13T09:28:08.844Z,82.28
2023-01-13T09:30:37.643Z,82.08
2023-01-13T09:33:23.632Z,81.71
2023-01-13T09:35:51.442Z,81.96
2023-01-13T09:38:19.130Z,81.86
2023-01-13T09:40:47.955Z,81.76
2023-01-13T09:43:38.724Z,81.38
2023-01-13T09:46:32.630Z,80.99
2023-01-13T09:49:00.238Z,80.03
2023-01-13T09:51:32.296Z,79.67
2023-01-13T09:54:32.221Z,80.30
2023-01-13T09:57:00.822Z,80.04
2023-01-13T09:59:33.515Z,80.48
2023-01-13T10:02:29.655Z,80.57
2023-01-13T10:05:23.608Z,80.36
2023-01-13T10:07:59.898Z,79.85
2023-01-13T10:10:43.637Z,79.67
2023-01-13T10:13:30.774Z,80.43
2023-01-13T10:16:07.038Z,80.77
2023-01-13T10:18:49.454Z,81.51
2023-01-13T10:21:52.978Z,81.48
2023-01-13T10:24:54.492Z,81.09
2023-01-13T10:27:25.610Z,80.44
2023-01-13T10:30:03.064Z,79.12
2023-01-13T10:32:45.674Z,77.83
2023-01-13T10:35:21.723Z,77.60
2023-01-13T10:37:56.942Z,76.96
2023-01-13T10:40:25.896Z,77.94
2023-01-13T10:43:07.005Z,77.30
2023-01-13T10:45:37.674Z,75.68
2023-01-13T10:48:07.767Z,77.22
2023-01-13T10:50:35.738Z,77.37
2023-01-13T10:53:25.486Z,77.26
2023-01-13T10:56:05.280Z,77.14
2023-01-13T10:58:43.575Z,77.65
2023-01-13T11:01:40.580Z,77.89
2023-01-13T11:08:24.100Z,79.05
2023-01-13T11:10:56.675Z,78.71
2023-01-13T11:13:38.662Z,78.57
2023-01-13T11:16:16.169Z,78.76
2023-01-13T11:19:02.527Z,78.92
2023-01-13T11:21:41.827Z,79.38
2023-01-13T11:24:18.426Z,78.86
2023-01-13T11:27:08.608Z,78.62
2023-01-13T11:29:43.120Z,78.36
2023-01-13T11:32:17.055Z,78.55
2023-01-13T11:34:46.253Z,78.17
2023-01-13T11:37:43.930Z,78.16
2023-01-13T11:40:25.252Z,77.85
2023-01-13T11:42:59.620Z,77.98
2023-01-13T11:45:35.900Z,78.03
2023-01-13T11:48:03.990Z,78.70
2023-01-13T11:50:51.713Z,79.11
2023-01-13T11:53:44.649Z,79.17
2023-01-13T11:56:25.471Z,78.61
2023-01-13T11:59:33.609Z,79.10
2023-01-13T12:02:26.869Z,79.49
2023-01-13T12:05:29.251Z,80.02
2023-01-13T12:08:00.468Z,79.93
2023-01-13T12:10:40.612Z,79.41
2023-01-13T12:13:31.508Z,79.29
2023-01-13T12:16:16.381Z,79.31
2023-01-13T12:18:56.179Z,79.01
2023-01-13T12:21:33.452Z,79.35
2023-01-13T12:24:10.934Z,78.72
2023-01-13T12:26:41.005Z,78.45
2023-01-13T12:29:35.523Z,77.86
2023-01-13T12:32:05.966Z,78.19
2023-01-13T12:34:57.395Z,77.97
2023-01-13T12:37:40.397Z,78.06
2023-01-13T12:40:29.159Z,77.24
2023-01-13T12:43:39.643Z,77.18
2023-01-13T12:46:20.115Z,76.46
2023-01-13T12:48:59.647Z,75.91
2023-01-13T12:51:34.560Z,75.71
2023-01-13T12:54:03.031Z,75.68
2023-01-13T12:56:44.828Z,75.31
2023-01-13T12:59:33.283Z,75.62
2023-01-13T13:02:13.089Z,75.37
2023-01-13T13:04:53.325Z,75.18
2023-01-13T13:07:52.246Z,75.00
2023-01-13T13:10:38.598Z,74.98
2023-01-13T13:13:41.023Z,75.23
2023-01-13T13:16:47.992Z,75.87
2023-01-13T13:19:18.142Z,75.41
2023-01-13T13:22:13.854Z,75.71
2023-01-13T13:24:42.079Z,75.16
2023-01-13T13:27:37.441Z,75.61
2023-01-13T13:30:20.231Z,76.02
2023-01-13T13:32:56.543Z,75.98
2023-01-13T13:35:31.993Z,75.67
2023-01-13T13:38:30.159Z,75.28
2023-01-13T13:41:16.477Z,75.14
2023-01-13T13:44:03.369Z,75.40
2023-01-13T13:46:48.185Z,75.48
2023-01-13T13:49:16.424Z,75.45
2023-01-13T13:51:53.055Z,75.14
2023-01-13T13:54:21.652Z,75.16
2023-01-13T13:56:50.413Z,75.10
2023-01-13T13:59:25.675Z,75.49
2023-01-13T14:02:01.665Z,75.62
2023-01-13T14:04:39.232Z,75.93
2023-01-13T14:07:21.215Z,75.50
2023-01-13T14:09:50.693Z,74.86
2023-01-13T14:12:26.032Z,75.67
2023-01-13T14:14:56.851Z,76.33
2023-01-13T14:17:28.577Z,77.89
2023-01-13T14:20:05.281Z,77.42
2023-01-13T14:22:32.872Z,77.77
2023-01-13T14:25:02.101Z,76.08
2023-01-13T14:27:30.609Z,76.03
2023-01-13T14:29:59.490Z,79.81
2023-01-13T14:32:32.875Z,80.51
2023-01-13T14:35:00.265Z,78.26
2023-01-13T14:37:39.708Z,78.65
2023-01-13T14:40:07.548Z,77.72
2023-01-13T14:42:35.701Z,77.92
2023-01-13T14:45:03.500Z,78.21
2023-01-13T14:47:33.966Z,79.38
2023-01-13T14:50:10.679Z,79.09
2023-01-13T14:52:47.749Z,78.78
2023-01-13T14:55:18.166Z,78.92
2023-01-13T14:57:47.100Z,78.91
2023-01-13T15:00:14.379Z,78.58
2023-01-13T15:02:47.974Z,78.88
2023-01-13T15:05:22.690Z,79.26
2023-01-13T15:08:11.847Z,78.97
2023-01-13T15:10:48.672Z,78.73
2023-01-13T15:13:26.331Z,79.43
2023-01-13T15:15:55.945Z,79.43
2023-01-13T15:18:23.313Z,79.68
2023-01-13T15:20:53.464Z,79.78
2023-01-13T15:23:21.121Z,79.78
2023-01-13T15:25:48.474Z,79.37
2023-01-13T15:28:25.551Z,79.82
2023-01-13T15:30:53.770Z,80.21
2023-01-13T15:33:21.768Z,79.89
2023-01-13T15:35:51.000Z,80.02
2023-01-13T15:38:20.236Z,80.31
2023-01-13T15:40:48.323Z,79.61
2023-01-13T15:43:41.236Z,78.76
2023-01-13T15:46:39.143Z,78.76
2023-01-13T15:49:44.750Z,79.53
2023-01-13T15:52:23.098Z,79.99
2023-01-13T15:54:51.283Z,79.91
2023-01-13T15:57:24.661Z,79.87
2023-01-13T15:59:53.493Z,80.06
2023-01-13T16:02:24.999Z,79.65
2023-01-13T16:04:54.039Z,79.57
2023-01-13T16:07:21.665Z,79.79
2023-01-13T16:09:49.045Z,79.47
2023-01-13T16:12:16.374Z,79.89
2023-01-13T16:14:43.818Z,79.84
2023-01-13T16:17:22.514Z,79.83
2023-01-13T16:19:49.982Z,79.69
2023-01-13T16:22:17.744Z,80.08
2023-01-13T16:24:45.210Z,80.21
2023-01-13T16:27:16.439Z,80.41
2023-01-13T16:29:43.977Z,79.82
2023-01-13T16:32:11.272Z,79.07
2023-01-13T16:34:38.690Z,79.53
2023-01-13T16:37:26.683Z,79.05
2023-01-13T16:39:54.179Z,79.44
2023-01-13T16:42:21.453Z,80.01
2023-01-13T16:44:49.822Z,80.84
2023-01-13T16:47:17.829Z,80.50
2023-01-13T16:49:45.399Z,80.65
2023-01-13T16:52:12.796Z,80.81
2023-01-13T16:54:40.238Z,80.84
2023-01-13T16:57:09.946Z,80.72
2023-01-13T16:59:37.311Z,80.53
2023-01-13T17:02:04.939Z,80.76
2023-01-13T17:04:32.287Z,81.15
2023-01-13T17:07:00.959Z,81.28
2023-01-13T17:09:28.630Z,81.61
2023-01-13T17:11:56.463Z,82.14
2023-01-13T17:14:24.415Z,82.13
2023-01-13T17:16:53.518Z,81.78
2023-01-13T17:19:22.669Z,81.12
2023-01-13T17:21:51.238Z,81.71
2023-01-13T17:24:18.766Z,82.13
2023-01-13T17:26:49.167Z,82.24
2023-01-13T17:29:18.262Z,81.60
2023-01-13T17:31:45.678Z,81.58
2023-01-13T17:34:13.470Z,81.44
2023-01-13T17:36:41.299Z,81.32
2023-01-13T17:39:19.503Z,80.79
2023-01-13T17:41:47.190Z,80.97
2023-01-13T17:44:15.436Z,80.88
2023-01-13T17:46:43.316Z,81.01
2023-01-13T17:49:11.570Z,81.08
2023-01-13T17:51:39.030Z,81.01
2023-01-13T17:54:06.601Z,80.69
2023-01-13T17:56:34.058Z,80.15
2023-01-13T17:59:01.607Z,80.03
2023-01-13T18:01:32.967Z,80.73
2023-01-13T18:04:00.752Z,79.83
2023-01-13T18:06:28.465Z,79.74
2023-01-13T18:08:55.896Z,80.79
2023-01-13T18:11:23.347Z,80.63
2023-01-13T18:13:52.349Z,80.11
2023-01-13T18:16:19.921Z,80.30
2023-01-13T18:18:49.337Z,79.45
2023-01-13T18:21:43.722Z,79.68
2023-01-13T18:24:30.931Z,79.49
2023-01-13T18:27:16.834Z,79.34
2023-01-13T18:29:44.196Z,78.69
2023-01-13T18:32:11.624Z,78.57
2023-01-13T18:34:39.281Z,79.04
2023-01-13T18:37:07.223Z,78.99
2023-01-13T18:39:34.870Z,78.34
2023-01-13T18:42:20.806Z,78.19
2023-01-13T18:44:48.323Z,78.67
2023-01-13T18:47:15.696Z,79.17
2023-01-13T18:49:43.124Z,79.57
2023-01-13T18:52:10.624Z,79.13
2023-01-13T18:54:38.040Z,78.98
2023-01-13T18:57:05.357Z,79.85
2023-01-13T18:59:34.676Z,79.80
2023-01-13T19:02:03.034Z,80.02
2023-01-13T19:04:32.107Z,80.63
2023-01-13T19:07:01.138Z,80.89
2023-01-13T19:09:31.485Z,79.75
2023-01-13T19:12:01.281Z,79.32
2023-01-13T19:14:34.549Z,80.09
2023-01-13T19:17:06.768Z,80.35
2023-01-13T19:19:34.142Z,79.64
2023-01-13T19:22:01.460Z,80.29
2023-01-13T19:24:28.842Z,80.36
2023-01-13T19:26:56.121Z,79.70
2023-01-13T19:29:23.464Z,79.45
2023-01-13T19:31:50.730Z,79.59
2023-01-13T19:34:18.564Z,80.49
2023-01-13T19:36:45.860Z,80.51
2023-01-13T19:39:14.110Z,79.62
2023-01-13T19:41:59.929Z,79.88
2023-01-13T19:44:45.869Z,80.51
2023-01-13T19:47:13.234Z,80.78
2023-01-13T19:49:40.514Z,80.89
2023-01-13T19:52:07.872Z,80.42
2023-01-13T19:54:35.228Z,80.68
2023-01-13T19:57:02.635Z,81.06
2023-01-13T19:59:29.992Z,80.93
2023-01-13T20:01:57.614Z,80.99
2023-01-13T20:04:37.667Z,80.73
2023-01-13T20:07:05.909Z,80.67
2023-01-13T20:09:34.033Z,80.36
2023-01-13T20:12:10.314Z,80.62
2023-01-13T20:14:37.682Z,80.28
2023-01-13T20:17:05.101Z,80.58
2023-01-13T20:19:32.489Z,80.13
2023-01-13T20:21:59.775Z,80.18
2023-01-13T20:24:27.263Z,80.36
2023-01-13T20:26:54.790Z,80.95
2023-01-13T20:29:22.182Z,80.79
2023-01-13T20:31:50.076Z,80.85
2023-01-13T20:34:20.296Z,80.58
2023-01-13T20:36:48.522Z,80.34
2023-01-13T20:39:17.354Z,80.61
2023-01-13T20:42:03.285Z,80.70
2023-01-13T20:44:30.727Z,81.55
2023-01-13T20:46:59.142Z,81.63
2023-01-13T20:49:27.476Z,81.65
2023-01-13T20:51:55.092Z,81.61
2023-01-13T20:54:22.505Z,81.80
2023-01-13T20:56:49.863Z,81.74
2023-01-13T20:59:17.308Z,81.42
2023-01-13T21:01:44.648Z,81.53
2023-01-13T21:04:12.082Z,81.92
2023-01-13T21:06:39.387Z,82.58
2023-01-13T21:09:06.851Z,82.24
2023-01-13T21:11:52.530Z,82.79
2023-01-13T21:14:40.167Z,82.85
2023-01-13T21:17:07.957Z,83.31
2023-01-13T21:19:35.224Z,83.42
2023-01-13T21:22:04.152Z,83.95
2023-01-13T21:24:31.447Z,83.81
2023-01-13T21:27:01.558Z,83.82
2023-01-13T21:29:28.939Z,84.14
2023-01-13T21:31:56.388Z,83.90
2023-01-13T21:34:23.720Z,83.89
2023-01-13T21:36:51.054Z,83.92
2023-01-13T21:39:18.517Z,83.82
2023-01-13T21:42:04.286Z,83.68
2023-01-13T21:44:49.896Z,83.49
2023-01-13T21:47:36.293Z,83.69
2023-01-13T21:50:04.162Z,83.99
2023-01-13T21:52:31.426Z,84.41
2023-01-13T21:55:17.369Z,84.86
2023-01-13T21:57:45.602Z,84.76
2023-01-13T22:00:13.359Z,85.00
2023-01-13T22:02:40.896Z,85.02
2023-01-13T22:05:08.867Z,84.89
2023-01-13T22:07:36.519Z,84.48
2023-01-13T22:10:04.580Z,84.53
2023-01-13T22:12:32.620Z,84.32
2023-01-13T22:14:59.921Z,84.38
2023-01-13T22:17:27.754Z,84.41
2023-01-13T22:19:57.259Z,83.75
2023-01-13T22:22:25.111Z,83.86
2023-01-13T22:24:52.984Z,83.99
2023-01-13T22:27:25.313Z,83.84
2023-01-13T22:29:52.840Z,84.09
2023-01-13T22:32:20.665Z,84.58
2023-01-13T22:34:48.455Z,84.79
2023-01-13T22:37:15.761Z,84.47
2023-01-13T22:39:43.194Z,84.49
2023-01-13T22:42:11.694Z,84.82
2023-01-13T22:44:39.081Z,84.88
2023-01-13T22:47:08.571Z,84.55
2023-01-13T22:49:35.931Z,84.59
2023-01-13T22:52:03.390Z,85.00
2023-01-13T22:54:30.747Z,84.95
2023-01-13T22:56:57.990Z,84.62
2023-01-13T22:59:25.476Z,85.02
2023-01-13T23:01:52.835Z,85.09
2023-01-13T23:04:20.241Z,85.21
2023-01-13T23:06:47.647Z,85.32
2023-01-13T23:09:15.119Z,85.19
2023-01-13T23:11:42.539Z,85.01
2023-01-13T23:14:11.195Z,84.79
2023-01-13T23:16:39.660Z,84.50
2023-01-13T23:19:07.303Z,84.34
2023-01-13T23:21:36.337Z,84.66
2023-01-13T23:24:04.628Z,84.75
2023-01-13T23:26:32.726Z,84.76
2023-01-13T23:29:01.226Z,85.21
2023-01-13T23:31:28.636Z,85.61
2023-01-13T23:33:55.983Z,86.26
2023-01-13T23:36:25.073Z,86.37
2023-01-13T23:38:52.806Z,85.98
2023-01-13T23:41:24.283Z,86.07
2023-01-13T23:43:53.065Z,86.15
2023-01-13T23:46:20.674Z,86.02
2023-01-13T23:48:48.546Z,85.88
2023-01-13T23:51:15.928Z,85.55
2023-01-13T23:53:45.098Z,85.16
2023-01-13T23:56:14.829Z,84.77
2023-01-13T23:58:42.648Z,84.57
